Time;durP1;ratioP1;P1;durP2;ratioP2;P2;SDS_P1;SDS_P2;PMS_P1;PMS_P2;Temp;Humidity;BMP_temperature;BMP_pressure;BME280_temperature;BME280_humidity;BME280_pressure;Samples;Min_cycle;Max_cycle;Signal;HPM_P1;HPM_P2
2023/07/28 00:02:19;;;;;;;1.92;1.00;;;20.30;65.60;;;;;;5112484;28;20169;-66
2023/07/28 00:04:45;;;;;;;1.75;0.98;;;20.20;65.50;;;;;;5112916;28;20352;-66
2023/07/28 00:07:10;;;;;;;0.80;0.80;;;20.30;65.60;;;;;;5111740;28;20223;-65
2023/07/28 00:09:36;;;;;;;0.73;0.73;;;20.30;65.60;;;;;;5112602;28;20173;-65
2023/07/28 00:12:02;;;;;;;1.08;0.80;;;20.30;65.60;;;;;;5112526;28;20180;-65
2023/07/28 00:14:28;;;;;;;1.13;0.75;;;20.30;65.60;;;;;;5112206;28;20169;-65
2023/07/28 00:16:54;;;;;;;0.70;0.70;;;20.30;65.70;;;;;;5112602;28;20216;-64
2023/07/28 00:19:21;;;;;;;0.98;0.90;;;20.30;65.70;;;;;;5112664;28;20182;-65
2023/07/28 00:21:48;;;;;;;0.98;0.90;;;20.30;65.70;;;;;;5111941;28;20185;-65
2023/07/28 00:24:13;;;;;;;0.95;0.95;;;20.30;65.60;;;;;;5112354;28;20173;-65
2023/07/28 00:26:39;;;;;;;0.70;0.68;;;20.30;65.70;;;;;;5112690;28;20535;-65
2023/07/28 00:29:06;;;;;;;1.02;0.93;;;20.30;65.60;;;;;;5115825;28;20169;-66
2023/07/28 00:31:32;;;;;;;0.82;0.82;;;20.20;65.50;;;;;;5116719;28;20260;-65
2023/07/28 00:33:57;;;;;;;0.80;0.80;;;20.30;66.40;;;;;;5115574;28;20251;-67
2023/07/28 00:36:23;;;;;;;0.90;0.90;;;20.30;65.70;;;;;;5116467;28;20694;-66
2023/07/28 00:38:48;;;;;;;0.93;0.93;;;20.30;65.60;;;;;;5116560;28;20181;-66
2023/07/28 00:41:14;;;;;;;1.75;0.80;;;20.30;65.70;;;;;;5115067;28;20751;-65
2023/07/28 00:43:39;;;;;;;0.85;0.60;;;20.20;65.60;;;;;;5116166;28;20180;-65
2023/07/28 00:46:05;;;;;;;0.98;0.98;;;20.20;65.60;;;;;;5116128;28;20192;-65
2023/07/28 00:48:31;;;;;;;0.80;0.80;;;20.30;65.70;;;;;;5115540;28;20445;-64
2023/07/28 00:50:57;;;;;;;0.85;0.85;;;20.20;66.50;;;;;;5115980;28;20181;-64
2023/07/28 00:53:23;;;;;;;1.15;0.80;;;20.20;65.50;;;;;;5116286;28;20627;-65
2023/07/28 00:55:49;;;;;;;0.80;0.80;;;20.20;66.30;;;;;;5115286;28;20585;-66
2023/07/28 00:58:14;;;;;;;0.90;0.90;;;20.20;65.50;;;;;;5115747;28;20608;-65
2023/07/28 01:00:40;;;;;;;0.80;0.80;;;20.20;65.60;;;;;;5115853;28;20218;-66
2023/07/28 01:03:05;;;;;;;0.60;0.60;;;20.20;65.60;;;;;;5114844;28;20180;-66
2023/07/28 01:05:59;;;;;;;0.88;0.88;;;20.20;65.60;;;;;;5097896;28;20173;-66
2023/07/28 01:08:36;;;;;;;0.88;0.70;;;20.20;65.60;;;;;;5100128;28;20189;-65
2023/07/28 01:11:03;;;;;;;0.80;0.80;;;20.20;65.60;;;;;;5096792;28;20198;-64
2023/07/28 01:13:28;;;;;;;0.70;0.70;;;20.20;66.40;;;;;;5115720;28;20173;-65
2023/07/28 01:15:54;;;;;;;0.80;0.80;;;20.20;65.60;;;;;;5115604;28;20212;-65
2023/07/28 01:18:19;;;;;;;0.98;0.90;;;20.20;65.60;;;;;;5114622;28;20169;-65
2023/07/28 01:20:47;;;;;;;0.75;0.75;;;20.20;65.60;;;;;;5097404;28;20169;-65
2023/07/28 01:23:20;;;;;;;0.88;0.88;;;20.20;65.60;;;;;;5096850;28;20177;-65
2023/07/28 01:26:11;;;;;;;1.45;0.85;;;20.20;65.60;;;;;;5115402;28;20173;-64
2023/07/28 01:28:37;;;;;;;1.83;0.90;;;20.20;65.70;;;;;;5115469;28;20189;-65
2023/07/28 01:31:03;;;;;;;0.90;0.90;;;20.20;65.60;;;;;;5096145;28;20623;-65
2023/07/28 01:33:29;;;;;;;0.88;0.88;;;20.20;65.60;;;;;;5096919;28;20651;-66
2023/07/28 01:35:55;;;;;;;0.95;0.60;;;20.20;65.60;;;;;;5115144;28;20237;-66
2023/07/28 01:38:21;;;;;;;0.90;0.90;;;20.20;65.60;;;;;;5113934;28;20173;-66
2023/07/28 01:40:46;;;;;;;1.13;0.68;;;20.20;65.60;;;;;;5114600;28;20240;-65
2023/07/28 01:43:12;;;;;;;1.65;0.90;;;20.20;65.50;;;;;;5115000;28;20218;-65
2023/07/28 01:45:38;;;;;;;0.80;0.80;;;20.20;65.60;;;;;;5114359;28;20199;-65
2023/07/28 01:48:04;;;;;;;1.00;0.80;;;20.20;66.40;;;;;;5114726;28;20181;-64
2023/07/28 01:50:29;;;;;;;1.25;1.02;;;20.20;65.60;;;;;;5115551;28;20173;-64
2023/07/28 01:52:55;;;;;;;1.05;0.70;;;20.20;66.50;;;;;;5114318;28;20169;-64
2023/07/28 01:55:21;;;;;;;0.60;0.60;;;20.20;65.60;;;;;;5115056;28;20177;-64
2023/07/28 01:57:54;;;;;;;0.88;0.75;;;20.20;65.60;;;;;;5115015;28;20185;-65
2023/07/28 02:00:19;;;;;;;1.00;0.90;;;20.20;65.60;;;;;;5113808;28;20190;-66
2023/07/28 02:02:46;;;;;;;0.73;0.73;;;20.20;65.60;;;;;;5114689;28;20169;-66
2023/07/28 02:05:12;;;;;;;0.93;0.90;;;20.10;65.50;;;;;;5114609;28;20206;-66
2023/07/28 02:07:37;;;;;;;0.85;0.80;;;20.20;65.60;;;;;;5114113;28;20635;-65
2023/07/28 02:10:04;;;;;;;0.77;0.77;;;20.20;65.60;;;;;;5114391;28;20177;-65
2023/07/28 02:12:29;;;;;;;1.00;0.80;;;20.20;65.60;;;;;;5113838;28;20173;-66
2023/07/28 02:14:55;;;;;;;0.93;0.90;;;20.20;65.60;;;;;;5114583;28;20185;-65
2023/07/28 02:17:21;;;;;;;1.00;0.90;;;20.20;65.60;;;;;;5114473;28;20213;-66
2023/07/28 02:19:47;;;;;;;0.80;0.80;;;20.20;65.60;;;;;;5113984;28;20339;-65
2023/07/28 02:22:12;;;;;;;0.98;0.95;;;20.10;65.60;;;;;;5114363;28;20184;-65
2023/07/28 02:24:38;;;;;;;0.60;0.60;;;20.20;65.60;;;;;;5114447;28;20753;-65
2023/07/28 02:27:04;;;;;;;0.90;0.90;;;20.20;65.70;;;;;;5113475;28;20169;-65
2023/07/28 02:29:29;;;;;;;0.70;0.70;;;20.20;65.60;;;;;;5114226;28;20177;-65
2023/07/28 02:31:55;;;;;;;0.60;0.60;;;20.20;65.60;;;;;;5114410;28;20203;-66
2023/07/28 02:34:20;;;;;;;1.15;0.93;;;20.20;65.70;;;;;;5113618;28;20546;-66
2023/07/28 02:36:46;;;;;;;0.77;0.77;;;20.20;65.70;;;;;;5113935;28;20212;-66
2023/07/28 02:39:12;;;;;;;0.70;0.70;;;20.10;65.60;;;;;;5113635;28;20184;-66
2023/07/28 02:41:38;;;;;;;0.85;0.82;;;20.10;65.60;;;;;;5113509;28;20177;-66
2023/07/28 02:44:03;;;;;;;0.95;0.80;;;20.10;65.60;;;;;;5113620;28;20249;-65
2023/07/28 02:46:29;;;;;;;0.80;0.80;;;20.10;65.60;;;;;;5114115;28;20179;-65
2023/07/28 02:48:55;;;;;;;0.68;0.68;;;20.10;65.50;;;;;;5113152;28;20201;-64
2023/07/28 02:51:23;;;;;;;1.02;0.80;;;20.10;65.50;;;;;;5113794;28;20181;-65
2023/07/28 02:53:49;;;;;;;1.05;0.95;;;20.20;66.40;;;;;;5113933;28;20180;-64
2023/07/28 02:56:14;;;;;;;1.50;0.80;;;20.10;65.60;;;;;;5112684;28;20292;-65
2023/07/28 02:58:40;;;;;;;1.00;1.00;;;20.10;65.50;;;;;;5113651;28;20174;-65
2023/07/28 03:01:05;;;;;;;0.85;0.85;;;20.10;65.50;;;;;;5113281;28;20218;-66
2023/07/28 03:03:31;;;;;;;1.15;0.73;;;20.10;65.50;;;;;;5112996;28;20265;-66
2023/07/28 03:05:56;;;;;;;0.80;0.80;;;20.10;65.50;;;;;;5113368;28;20265;-65
2023/07/28 03:08:22;;;;;;;0.95;0.95;;;20.20;65.70;;;;;;5113478;28;20177;-65
2023/07/28 03:10:47;;;;;;;1.08;0.95;;;20.10;65.50;;;;;;5112926;28;20180;-65
2023/07/28 03:13:13;;;;;;;0.95;0.90;;;20.10;65.50;;;;;;5113196;28;20201;-64
2023/07/28 03:15:39;;;;;;;0.90;0.90;;;20.10;65.50;;;;;;5113379;28;20205;-66
2023/07/28 03:18:04;;;;;;;1.20;0.90;;;20.10;65.50;;;;;;5112523;28;20250;-64
2023/07/28 03:20:30;;;;;;;1.08;0.80;;;20.10;65.50;;;;;;5113383;28;20176;-64
2023/07/28 03:22:55;;;;;;;0.88;0.88;;;20.10;65.50;;;;;;5112587;28;20207;-66
2023/07/28 03:25:21;;;;;;;0.80;0.80;;;20.10;65.50;;;;;;5113225;28;20169;-63
2023/07/28 03:27:46;;;;;;;0.93;0.90;;;20.20;65.70;;;;;;5095021;28;20185;-64
2023/07/28 03:30:12;;;;;;;1.10;1.00;;;20.10;65.50;;;;;;5112139;28;20230;-65
2023/07/28 03:32:38;;;;;;;1.50;1.02;;;20.10;65.50;;;;;;5113123;28;20635;-66
2023/07/28 03:35:05;;;;;;;1.00;1.00;;;20.10;65.50;;;;;;5112998;28;20173;-67
2023/07/28 03:37:31;;;;;;;0.90;0.90;;;20.10;65.50;;;;;;5115007;27;20670;-66
2023/07/28 03:39:57;;;;;;;1.17;1.08;;;20.10;65.50;;;;;;5133131;27;20694;-66
2023/07/28 03:42:22;;;;;;;1.13;0.93;;;20.10;65.50;;;;;;5133539;27;20176;-65
2023/07/28 03:44:48;;;;;;;1.02;1.00;;;20.10;65.50;;;;;;5133037;27;20529;-65
2023/07/28 03:47:13;;;;;;;0.95;0.90;;;20.10;65.50;;;;;;5133247;27;20168;-65
2023/07/28 03:49:39;;;;;;;0.80;0.80;;;20.10;65.50;;;;;;5133352;27;20168;-65
2023/07/28 03:52:05;;;;;;;0.80;0.80;;;20.10;65.50;;;;;;5132349;27;20259;-65
2023/07/28 03:54:30;;;;;;;0.70;0.70;;;20.10;65.50;;;;;;5133274;27;20226;-65
2023/07/28 03:56:56;;;;;;;1.20;1.10;;;20.10;65.50;;;;;;5133145;27;20662;-65
2023/07/28 03:59:21;;;;;;;2.22;0.90;;;20.10;65.50;;;;;;5132493;28;20653;-66
2023/07/28 04:01:47;;;;;;;1.20;1.10;;;20.10;65.60;;;;;;5134757;27;20529;-67
2023/07/28 04:04:13;;;;;;;1.63;1.08;;;20.10;65.60;;;;;;5140061;27;20179;-66
2023/07/28 04:06:43;;;;;;;0.95;0.90;;;20.10;65.60;;;;;;5139460;27;20173;-66
2023/07/28 04:09:08;;;;;;;1.27;0.95;;;20.10;65.60;;;;;;5139747;27;20541;-65
2023/07/28 04:11:34;;;;;;;1.30;1.20;;;20.10;65.60;;;;;;5140107;27;20176;-65
2023/07/28 04:14:00;;;;;;;0.90;0.90;;;20.10;65.60;;;;;;5139169;27;20670;-65
2023/07/28 04:16:25;;;;;;;1.52;1.10;;;20.10;65.50;;;;;;5140055;27;20212;-66
2023/07/28 04:18:51;;;;;;;1.13;1.02;;;20.10;65.50;;;;;;5139998;27;20160;-65
2023/07/28 04:21:16;;;;;;;1.48;1.38;;;20.10;65.60;;;;;;5139016;27;20650;-65
2023/07/28 04:23:43;;;;;;;1.25;1.13;;;20.10;65.60;;;;;;5140074;27;20165;-65
2023/07/28 04:26:08;;;;;;;1.17;1.08;;;20.10;65.60;;;;;;5138988;27;20172;-64
2023/07/28 04:28:34;;;;;;;1.40;1.30;;;20.10;65.60;;;;;;5140449;27;20195;-66
2023/07/28 04:30:59;;;;;;;1.50;1.40;;;20.10;65.60;;;;;;5139926;27;20175;-65
2023/07/28 04:33:25;;;;;;;1.50;1.20;;;20.10;65.60;;;;;;5139255;27;20176;-66
2023/07/28 04:35:50;;;;;;;1.52;1.40;;;20.10;65.60;;;;;;5139730;27;20290;-66
2023/07/28 04:38:18;;;;;;;1.40;1.30;;;20.10;65.60;;;;;;5139617;27;20255;-66
2023/07/28 04:40:43;;;;;;;1.40;1.30;;;20.10;65.60;;;;;;5138939;27;20232;-66
2023/07/28 04:43:09;;;;;;;1.40;1.30;;;20.10;66.50;;;;;;5139414;27;20542;-64
2023/07/28 04:45:34;;;;;;;1.20;1.10;;;20.10;65.70;;;;;;5139929;27;20203;-64
2023/07/28 04:48:00;;;;;;;1.38;1.27;;;20.10;65.60;;;;;;5138849;27;20169;-66
2023/07/28 04:50:28;;;;;;;1.13;1.05;;;20.10;65.70;;;;;;5139873;27;20323;-65
2023/07/28 04:52:53;;;;;;;1.30;1.20;;;20.10;65.60;;;;;;5139734;27;20250;-65
2023/07/28 04:55:19;;;;;;;1.30;1.20;;;20.10;65.70;;;;;;5138839;27;20271;-63
2023/07/28 04:57:44;;;;;;;1.90;1.27;;;20.10;65.60;;;;;;5139781;27;20282;-65
2023/07/28 05:00:13;;;;;;;1.10;1.00;;;20.10;65.60;;;;;;5139464;27;20649;-65
2023/07/28 05:02:39;;;;;;;1.55;1.40;;;20.10;65.70;;;;;;5138926;27;20561;-65
2023/07/28 05:05:04;;;;;;;1.33;1.23;;;20.10;65.70;;;;;;5139194;27;20684;-65
2023/07/28 05:07:30;;;;;;;2.00;1.60;;;20.10;65.60;;;;;;5139515;27;20172;-65
2023/07/28 05:09:56;;;;;;;1.30;1.20;;;20.10;65.60;;;;;;5138555;27;20176;-65
2023/07/28 05:12:21;;;;;;;1.17;1.08;;;20.10;65.70;;;;;;5139667;27;20176;-64
2023/07/28 05:14:49;;;;;;;1.40;1.30;;;20.10;65.60;;;;;;5135860;27;20167;-65
2023/07/28 05:17:15;;;;;;;1.48;1.30;;;20.10;65.70;;;;;;5135511;27;20512;-65
2023/07/28 05:19:41;;;;;;;1.55;1.45;;;20.10;65.70;;;;;;5137229;27;20179;-65
2023/07/28 05:22:06;;;;;;;1.25;1.17;;;20.10;65.70;;;;;;5136765;27;20543;-65
2023/07/28 05:24:33;;;;;;;1.48;1.30;;;20.10;65.70;;;;;;5135396;27;20172;-65
2023/07/28 05:26:59;;;;;;;2.05;1.33;;;20.10;65.70;;;;;;5126702;27;20180;-65
2023/07/28 05:29:24;;;;;;;1.40;1.30;;;20.10;65.70;;;;;;5114929;28;20252;-65
2023/07/28 05:31:50;;;;;;;1.83;1.73;;;20.10;65.70;;;;;;5115457;28;20542;-66
2023/07/28 05:34:15;;;;;;;1.83;1.45;;;20.10;65.70;;;;;;5115181;28;20169;-67
2023/07/28 05:36:41;;;;;;;2.03;1.60;;;20.10;65.70;;;;;;5114570;28;20205;-67
2023/07/28 05:39:06;;;;;;;1.35;1.25;;;20.10;65.70;;;;;;5114858;28;20177;-66
2023/07/28 05:41:32;;;;;;;1.35;1.25;;;20.10;65.70;;;;;;5094852;28;20604;-66
2023/07/28 05:43:57;;;;;;;1.67;1.58;;;20.10;65.70;;;;;;5093942;28;20174;-66
2023/07/28 05:46:23;;;;;;;1.25;1.15;;;20.10;65.70;;;;;;5094870;28;20238;-65
2023/07/28 05:48:49;;;;;;;1.40;1.30;;;20.10;65.80;;;;;;5094738;28;20181;-65
2023/07/28 05:51:14;;;;;;;1.50;1.40;;;20.10;65.80;;;;;;5093642;28;20182;-64
2023/07/28 05:53:40;;;;;;;1.65;1.55;;;20.10;65.80;;;;;;5094569;28;20173;-64
2023/07/28 05:56:05;;;;;;;2.05;1.50;;;20.10;65.70;;;;;;5094176;28;20312;-65
2023/07/28 05:58:31;;;;;;;1.90;1.35;;;20.10;66.60;;;;;;5093686;28;20170;-66
2023/07/28 06:00:57;;;;;;;1.70;1.60;;;20.10;65.70;;;;;;5094229;28;20185;-66
2023/07/28 06:03:22;;;;;;;1.70;1.60;;;20.10;65.70;;;;;;5094722;28;20178;-67
2023/07/28 06:05:48;;;;;;;2.28;1.88;;;20.10;65.80;;;;;;5093728;28;20585;-66
2023/07/28 06:08:14;;;;;;;1.77;1.67;;;20.10;65.80;;;;;;5094118;28;20170;-65
2023/07/28 06:10:39;;;;;;;1.88;1.77;;;20.10;65.80;;;;;;5094141;28;20216;-65
2023/07/28 06:13:05;;;;;;;1.75;1.65;;;20.10;65.80;;;;;;5093436;28;20165;-65
2023/07/28 06:15:30;;;;;;;1.92;1.80;;;20.10;65.70;;;;;;5094187;28;20705;-65
2023/07/28 06:17:56;;;;;;;1.90;1.70;;;20.10;65.80;;;;;;5094028;28;20213;-65
2023/07/28 06:20:21;;;;;;;1.63;1.50;;;20.10;65.80;;;;;;5093444;28;20636;-65
2023/07/28 06:22:47;;;;;;;1.70;1.60;;;20.20;65.80;;;;;;5093939;28;20174;-65
2023/07/28 06:25:12;;;;;;;1.65;1.52;;;20.10;65.70;;;;;;5093416;28;20166;-65
2023/07/28 06:27:38;;;;;;;2.40;1.58;;;20.10;65.70;;;;;;5093578;28;20233;-65
2023/07/28 06:30:05;;;;;;;1.70;1.60;;;20.10;65.70;;;;;;5094180;28;20478;-66
2023/07/28 06:32:31;;;;;;;1.80;1.70;;;20.10;65.70;;;;;;5094022;28;20294;-66
2023/07/28 06:34:57;;;;;;;2.25;2.00;;;20.10;65.80;;;;;;5093253;28;20189;-67
2023/07/28 06:37:23;;;;;;;1.90;1.80;;;20.20;65.80;;;;;;5093932;28;20222;-66
2023/07/28 06:39:49;;;;;;;2.20;1.73;;;20.10;65.70;;;;;;5098635;28;20306;-67
2023/07/28 06:42:16;;;;;;;1.85;1.75;;;20.20;65.90;;;;;;5113930;28;20639;-66
2023/07/28 06:44:42;;;;;;;2.17;1.90;;;20.10;65.80;;;;;;5114548;28;20256;-65
2023/07/28 06:47:07;;;;;;;2.15;1.95;;;20.20;65.90;;;;;;5112990;28;20252;-65
2023/07/28 06:49:33;;;;;;;2.13;1.92;;;20.10;65.80;;;;;;5113886;28;20185;-65
2023/07/28 06:51:58;;;;;;;2.20;1.73;;;20.10;66.70;;;;;;5113491;28;20181;-64
2023/07/28 06:54:24;;;;;;;2.78;1.90;;;20.10;65.90;;;;;;5113047;28;20181;-64
2023/07/28 06:56:50;;;;;;;2.10;2.00;;;20.10;65.80;;;;;;5113740;28;20300;-65
2023/07/28 06:59:15;;;;;;;1.95;1.85;;;20.10;65.90;;;;;;5113610;28;20196;-66
2023/07/28 07:01:41;;;;;;;1.83;1.73;;;20.10;65.90;;;;;;5112975;28;20654;-66
2023/07/28 07:04:06;;;;;;;2.20;1.80;;;20.20;66.00;;;;;;5113133;28;20169;-66
2023/07/28 07:06:32;;;;;;;2.47;2.08;;;20.10;66.70;;;;;;5113468;28;20186;-66
2023/07/28 07:08:57;;;;;;;3.08;1.83;;;20.10;65.90;;;;;;5112265;28;20177;-65
2023/07/28 07:11:23;;;;;;;2.08;1.88;;;20.10;65.90;;;;;;5113392;28;20172;-65
2023/07/28 07:13:49;;;;;;;2.00;1.70;;;20.10;65.90;;;;;;5113585;28;20188;-65
2023/07/28 07:16:17;;;;;;;2.80;2.10;;;20.10;66.00;;;;;;5112335;28;20529;-65
2023/07/28 07:18:43;;;;;;;2.20;1.90;;;20.20;66.10;;;;;;5113343;28;20165;-65
2023/07/28 07:21:09;;;;;;;2.10;2.00;;;20.10;66.80;;;;;;5112912;28;20173;-65
2023/07/28 07:23:35;;;;;;;2.25;2.05;;;20.10;66.80;;;;;;5112504;28;20184;-65
2023/07/28 07:26:01;;;;;;;2.35;1.75;;;20.20;66.00;;;;;;5113191;28;20181;-65
2023/07/28 07:28:28;;;;;;;2.15;1.95;;;20.10;66.00;;;;;;5113442;28;20570;-65
2023/07/28 07:30:54;;;;;;;2.10;2.00;;;20.10;66.80;;;;;;5112566;28;20181;-65
2023/07/28 07:33:19;;;;;;;2.08;1.98;;;20.20;66.20;;;;;;5112797;28;20180;-66
2023/07/28 07:35:45;;;;;;;2.83;2.20;;;20.20;66.10;;;;;;5112834;28;20176;-66
2023/07/28 07:38:10;;;;;;;3.47;2.28;;;20.20;66.10;;;;;;5111648;28;20173;-67
2023/07/28 07:40:36;;;;;;;4.05;2.60;;;20.20;66.20;;;;;;5112908;28;20213;-66
2023/07/28 07:43:03;;;;;;;2.65;2.45;;;20.20;66.20;;;;;;5111957;28;20264;-67
2023/07/28 07:45:29;;;;;;;2.55;2.33;;;20.20;66.20;;;;;;5112927;28;20620;-65
2023/07/28 07:47:55;;;;;;;3.22;2.67;;;20.20;66.20;;;;;;5094900;28;20585;-65
2023/07/28 07:50:21;;;;;;;2.15;1.95;;;20.20;66.20;;;;;;5112000;28;20165;-64
2023/07/28 07:52:47;;;;;;;3.75;2.45;;;20.20;66.20;;;;;;5112746;28;20172;-64
2023/07/28 07:55:12;;;;;;;2.95;2.67;;;20.20;66.20;;;;;;5112716;28;20188;-64
2023/07/28 07:57:38;;;;;;;2.67;2.33;;;20.20;66.20;;;;;;5112044;28;20205;-65
2023/07/28 08:00:05;;;;;;;3.28;2.58;;;20.30;66.10;;;;;;5112419;28;20200;-64
2023/07/28 08:02:30;;;;;;;2.20;2.00;;;20.30;66.20;;;;;;5094404;28;20267;-64
2023/07/28 08:04:56;;;;;;;2.25;2.10;;;20.30;66.20;;;;;;5111576;28;20260;-62
2023/07/28 08:07:23;;;;;;;2.15;2.00;;;20.30;66.40;;;;;;5112371;28;20177;-62
2023/07/28 08:09:48;;;;;;;3.55;2.42;;;20.30;66.40;;;;;;5112916;28;20173;-62
2023/07/28 08:12:17;;;;;;;3.30;2.63;;;20.30;67.10;;;;;;5111676;28;20176;-62
2023/07/28 08:14:42;;;;;;;2.38;2.17;;;20.30;66.40;;;;;;5112686;28;20173;-62
2023/07/28 08:17:09;;;;;;;3.33;2.13;;;20.30;66.20;;;;;;5112327;28;20601;-62
2023/07/28 08:19:34;;;;;;;2.85;2.17;;;20.30;66.40;;;;;;5111867;28;20208;-62
2023/07/28 08:22:00;;;;;;;3.17;2.75;;;20.30;66.80;;;;;;5112205;28;20203;-62
2023/07/28 08:24:26;;;;;;;2.88;2.22;;;20.30;66.70;;;;;;5111436;28;20219;-62
2023/07/28 08:26:51;;;;;;;5.38;2.50;;;20.30;66.90;;;;;;5120381;28;20169;-63
2023/07/28 08:29:17;;;;;;;2.85;2.60;;;20.30;66.60;;;;;;5132761;28;20690;-63
2023/07/28 08:31:43;;;;;;;3.38;2.55;;;20.30;66.60;;;;;;5132983;28;20686;-63
2023/07/28 08:34:08;;;;;;;3.42;2.63;;;20.30;66.80;;;;;;5120733;28;20169;-64
2023/07/28 08:36:34;;;;;;;4.07;2.30;;;20.30;66.60;;;;;;5112350;28;20299;-63
2023/07/28 08:39:00;;;;;;;2.20;2.00;;;20.30;66.60;;;;;;5112627;28;20177;-63
2023/07/28 08:41:25;;;;;;;2.45;2.25;;;20.30;66.60;;;;;;5112787;28;20695;-64
2023/07/28 08:43:53;;;;;;;2.33;2.13;;;20.40;66.50;;;;;;5133250;28;20179;-62
2023/07/28 08:46:19;;;;;;;3.22;2.30;;;20.30;66.60;;;;;;5114752;28;20173;-62
2023/07/28 08:48:45;;;;;;;4.00;2.40;;;20.30;66.40;;;;;;5117032;27;20218;-61
2023/07/28 08:51:11;;;;;;;3.83;2.35;;;20.40;66.40;;;;;;5122656;27;20173;-62
2023/07/28 08:53:38;;;;;;;2.92;2.30;;;20.40;67.40;;;;;;5115408;28;20716;-61
2023/07/28 08:56:03;;;;;;;2.75;2.53;;;20.40;66.80;;;;;;5115683;28;20209;-61
2023/07/28 08:58:29;;;;;;;2.92;2.50;;;20.40;66.70;;;;;;5116120;28;20188;-62
2023/07/28 09:00:55;;;;;;;2.58;2.38;;;20.40;66.80;;;;;;5115239;28;20186;-61
2023/07/28 09:03:21;;;;;;;3.70;2.92;;;20.30;66.90;;;;;;5115618;28;20268;-64
2023/07/28 09:05:47;;;;;;;3.70;2.97;;;20.30;67.00;;;;;;5116063;28;20254;-62
2023/07/28 09:08:15;;;;;;;2.85;2.58;;;20.40;67.00;;;;;;5115070;28;20193;-61
2023/07/28 09:10:45;;;;;;;3.03;2.72;;;20.40;67.00;;;;;;5116123;28;20204;-63
2023/07/28 09:13:14;;;;;;;3.45;2.50;;;20.40;66.80;;;;;;5115570;28;20179;-62
2023/07/28 09:15:40;;;;;;;3.88;3.00;;;20.50;66.70;;;;;;5114908;28;20539;-62
2023/07/28 09:18:12;;;;;;;3.00;2.80;;;20.50;66.60;;;;;;5115323;28;20646;-62
2023/07/28 09:20:39;;;;;;;4.70;3.13;;;20.50;66.50;;;;;;5115920;28;20184;-62
2023/07/28 09:23:05;;;;;;;3.60;3.22;;;20.50;66.50;;;;;;5114840;28;20169;-62
2023/07/28 09:25:31;;;;;;;3.38;2.85;;;20.50;66.60;;;;;;5115675;28;20177;-62
2023/07/28 09:27:57;;;;;;;3.10;2.80;;;20.50;66.60;;;;;;5115411;28;20181;-62
2023/07/28 09:30:23;;;;;;;3.47;3.13;;;20.50;67.40;;;;;;5096627;28;20620;-61
2023/07/28 09:32:49;;;;;;;3.70;2.80;;;20.50;66.50;;;;;;5097460;28;20256;-62
2023/07/28 09:35:16;;;;;;;3.38;3.05;;;20.50;66.50;;;;;;5115267;28;20623;-64
2023/07/28 09:37:42;;;;;;;3.17;2.60;;;20.50;66.50;;;;;;5114729;28;20295;-64
2023/07/28 09:40:12;;;;;;;3.38;2.65;;;20.60;66.60;;;;;;5114830;28;20259;-63
2023/07/28 09:42:41;;;;;;;5.68;3.03;;;20.50;66.60;;;;;;5114385;28;20610;-62
2023/07/28 09:45:08;;;;;;;3.28;2.97;;;20.50;66.70;;;;;;5114875;28;20173;-63
2023/07/28 09:47:35;;;;;;;3.53;2.75;;;20.50;66.70;;;;;;5115236;28;20184;-62
2023/07/28 09:50:04;;;;;;;3.10;2.80;;;20.50;66.60;;;;;;5114044;28;20647;-63
2023/07/28 09:52:35;;;;;;;2.85;2.60;;;20.50;66.60;;;;;;5097341;28;20624;-63
2023/07/28 09:55:05;;;;;;;3.03;2.83;;;20.60;66.50;;;;;;5114765;28;20619;-62
2023/07/28 09:57:30;;;;;;;3.75;3.05;;;20.60;66.30;;;;;;5096108;28;20250;-63
2023/07/28 09:59:56;;;;;;;3.38;3.03;;;20.70;66.20;;;;;;5096012;28;20173;-64
2023/07/28 10:02:22;;;;;;;2.83;2.63;;;20.70;66.10;;;;;;5096768;28;20654;-64
2023/07/28 10:04:47;;;;;;;2.85;2.65;;;20.70;66.00;;;;;;5095989;28;20177;-64
2023/07/28 10:07:13;;;;;;;3.30;3.00;;;20.80;65.80;;;;;;5096457;28;20642;-64
2023/07/28 10:09:38;;;;;;;3.03;2.78;;;20.80;65.80;;;;;;5114798;28;20585;-63
2023/07/28 10:12:04;;;;;;;4.38;3.03;;;20.80;65.90;;;;;;5113740;28;20585;-63
2023/07/28 10:14:39;;;;;;;4.32;3.17;;;20.80;65.90;;;;;;5096712;28;20204;-63
2023/07/28 10:17:05;;;;;;;3.17;2.88;;;20.80;65.90;;;;;;5114506;28;20208;-63
2023/07/28 10:19:37;;;;;;;3.38;2.70;;;20.80;65.90;;;;;;5114042;28;20169;-63
2023/07/28 10:22:07;;;;;;;2.83;2.63;;;20.90;65.80;;;;;;5096004;28;20189;-63
2023/07/28 10:25:00;;;;;;;3.38;3.08;;;20.90;65.80;;;;;;5114732;28;20173;-62
2023/07/28 10:27:36;;;;;;;3.00;2.53;;;20.90;65.70;;;;;;5114736;28;20256;-63
2023/07/28 10:30:04;;;;;;;3.80;3.10;;;20.90;66.50;;;;;;5096549;28;20213;-63
2023/07/28 10:32:38;;;;;;;3.45;2.78;;;20.90;65.60;;;;;;5113672;28;20184;-64
2023/07/28 10:35:17;;;;;;;3.40;3.03;;;21.00;65.70;;;;;;5096864;28;20269;-64
2023/07/28 10:37:48;;;;;;;3.00;2.78;;;21.00;65.60;;;;;;5114108;28;20257;-65
2023/07/28 10:40:34;;;;;;;3.25;2.97;;;21.00;65.50;;;;;;5113006;28;20256;-63
2023/07/28 10:43:00;;;;;;;2.92;2.72;;;21.00;65.50;;;;;;5113858;28;20623;-64
2023/07/28 10:45:27;;;;;;;4.00;3.60;;;21.00;65.80;;;;;;5113952;28;20197;-64
2023/07/28 10:47:55;;;;;;;3.78;3.38;;;21.00;65.90;;;;;;5113671;28;20176;-64
2023/07/28 10:50:20;;;;;;;4.03;3.67;;;21.00;66.10;;;;;;5113832;28;20200;-63
2023/07/28 10:52:46;;;;;;;3.17;2.88;;;21.00;66.20;;;;;;5113830;28;20205;-62
2023/07/28 10:55:24;;;;;;;3.70;3.40;;;21.00;67.20;;;;;;5112991;28;20252;-63
2023/07/28 10:57:51;;;;;;;4.03;3.42;;;21.00;66.40;;;;;;5113663;28;20216;-63
2023/07/28 11:00:18;;;;;;;3.47;3.17;;;21.00;66.30;;;;;;5113018;28;20603;-64
2023/07/28 11:02:51;;;;;;;3.83;3.53;;;21.00;66.20;;;;;;5113812;28;20234;-63
2023/07/28 11:05:21;;;;;;;3.58;3.22;;;21.00;66.30;;;;;;5113349;28;20264;-63
2023/07/28 11:07:47;;;;;;;3.72;3.35;;;21.00;66.40;;;;;;5112938;28;20173;-63
2023/07/28 11:10:13;;;;;;;3.88;3.58;;;21.10;66.10;;;;;;5095207;28;20173;-63
2023/07/28 11:12:42;;;;;;;3.92;3.50;;;21.20;66.00;;;;;;5112505;28;20185;-62
2023/07/28 11:15:10;;;;;;;3.83;3.35;;;21.20;66.10;;;;;;5094444;28;20255;-62
2023/07/28 11:17:37;;;;;;;4.07;3.67;;;21.10;66.20;;;;;;5113581;28;20237;-62
2023/07/28 11:20:04;;;;;;;4.75;3.50;;;21.10;66.40;;;;;;5113238;28;20571;-62
2023/07/28 11:22:29;;;;;;;4.00;3.70;;;21.10;66.50;;;;;;5112835;28;20232;-63
2023/07/28 11:24:55;;;;;;;4.13;3.83;;;21.10;66.40;;;;;;5113254;28;20663;-62
2023/07/28 11:27:20;;;;;;;4.32;3.92;;;21.20;66.50;;;;;;5113011;28;20174;-62
2023/07/28 11:29:46;;;;;;;4.45;4.05;;;21.10;66.50;;;;;;5094301;28;20173;-62
2023/07/28 11:32:12;;;;;;;3.78;3.47;;;21.10;66.50;;;;;;5112845;28;20173;-63
2023/07/28 11:34:37;;;;;;;4.38;3.97;;;21.10;67.40;;;;;;5095047;28;20222;-64
2023/07/28 11:37:05;;;;;;;3.83;3.53;;;21.10;66.60;;;;;;5111996;28;20227;-64
2023/07/28 11:39:31;;;;;;;4.47;4.00;;;21.10;66.60;;;;;;5095056;28;20228;-63
2023/07/28 11:41:57;;;;;;;4.40;4.05;;;21.10;66.60;;;;;;5094710;28;20184;-63
2023/07/28 11:44:24;;;;;;;4.28;3.88;;;21.20;66.80;;;;;;5112549;28;20200;-63
2023/07/28 11:46:53;;;;;;;4.47;4.07;;;21.10;66.60;;;;;;5113191;28;20655;-63
2023/07/28 11:49:22;;;;;;;4.35;3.95;;;21.10;66.60;;;;;;5112008;28;20226;-62
2023/07/28 11:51:48;;;;;;;4.10;3.80;;;21.20;66.70;;;;;;5112889;28;20177;-62
2023/07/28 11:54:15;;;;;;;4.50;4.10;;;21.20;66.70;;;;;;5112460;28;20255;-62
2023/07/28 11:56:42;;;;;;;4.47;4.07;;;21.20;66.70;;;;;;5112187;28;20295;-62
2023/07/28 11:59:08;;;;;;;4.18;3.78;;;21.30;66.50;;;;;;5112509;28;20616;-63
2023/07/28 12:01:33;;;;;;;4.97;4.28;;;21.20;66.40;;;;;;5094818;28;20264;-63
2023/07/28 12:04:00;;;;;;;4.68;4.28;;;21.30;66.50;;;;;;5093804;28;20180;-63
2023/07/28 12:06:26;;;;;;;4.95;4.28;;;21.30;66.50;;;;;;5095122;28;20197;-63
2023/07/28 12:08:51;;;;;;;4.50;4.10;;;21.20;66.50;;;;;;5094572;28;20200;-65
2023/07/28 12:11:17;;;;;;;4.90;4.40;;;21.30;66.60;;;;;;5112018;28;20169;-62
2023/07/28 12:13:52;;;;;;;4.68;4.28;;;21.30;66.60;;;;;;5094830;28;20173;-62
2023/07/28 12:16:41;;;;;;;4.88;4.45;;;21.30;66.50;;;;;;5112353;28;20208;-62
2023/07/28 12:19:07;;;;;;;5.00;4.50;;;21.30;66.50;;;;;;5111619;28;20295;-62
2023/07/28 12:21:32;;;;;;;5.43;4.63;;;21.30;66.50;;;;;;5112590;28;20625;-62
2023/07/28 12:23:58;;;;;;;5.10;4.60;;;21.30;67.30;;;;;;5114909;28;20180;-62
2023/07/28 12:26:23;;;;;;;4.60;4.22;;;21.30;66.40;;;;;;5116231;28;20582;-62
2023/07/28 12:28:49;;;;;;;5.22;4.72;;;21.40;66.30;;;;;;5117370;28;20181;-62
2023/07/28 12:31:14;;;;;;;4.50;4.10;;;21.40;66.20;;;;;;5116386;28;20559;-63
2023/07/28 12:33:40;;;;;;;4.70;4.30;;;21.40;67.10;;;;;;5115881;28;20697;-64
2023/07/28 12:36:06;;;;;;;5.40;4.90;;;21.40;66.20;;;;;;5116074;28;20254;-64
2023/07/28 12:38:31;;;;;;;4.65;4.35;;;21.50;66.20;;;;;;5115819;28;20169;-64
2023/07/28 12:40:57;;;;;;;4.82;4.43;;;21.50;66.20;;;;;;5115983;28;20687;-63
2023/07/28 12:43:24;;;;;;;4.82;4.35;;;21.50;66.30;;;;;;5116706;28;20195;-63
2023/07/28 12:45:49;;;;;;;5.00;4.50;;;21.50;66.20;;;;;;5115865;28;20181;-63